sensor_id;sensor_type;location;lat;lon;timestamp;temperature;humidity
23329;DHT22;11836;51.050;3.716;2023-01-23T00:01:32;13.90;94.00
23329;DHT22;11836;51.050;3.716;2023-01-23T00:04:07;13.80;94.00
23329;DHT22;11836;51.050;3.716;2023-01-23T00:06:36;13.90;94.00
23329;DHT22;11836;51.050;3.716;2023-01-23T00:09:04;13.90;93.60
23329;DHT22;11836;51.050;3.716;2023-01-23T00:11:29;13.80;94.00
23329;DHT22;11836;51.050;3.716;2023-01-23T00:13:57;13.80;94.30
23329;DHT22;11836;51.050;3.716;2023-01-23T00:16:25;13.20;94.60
23329;DHT22;11836;51.050;3.716;2023-01-23T00:18:54;13.80;93.70
23329;DHT22;11836;51.050;3.716;2023-01-23T00:21:23;13.80;93.70
23329;DHT22;11836;51.050;3.716;2023-01-23T00:23:52;13.80;94.10
23329;DHT22;11836;51.050;3.716;2023-01-23T00:26:24;13.80;94.20
23329;DHT22;11836;51.050;3.716;2023-01-23T00:28:51;13.80;94.30
23329;DHT22;11836;51.050;3.716;2023-01-23T00:31:25;13.80;94.10
23329;DHT22;11836;51.050;3.716;2023-01-23T00:34:03;13.80;93.90
23329;DHT22;11836;51.050;3.716;2023-01-23T00:36:36;13.70;94.20
23329;DHT22;11836;51.050;3.716;2023-01-23T00:39:08;13.70;94.20
23329;DHT22;11836;51.050;3.716;2023-01-23T00:41:49;13.70;94.40
23329;DHT22;11836;51.050;3.716;2023-01-23T00:44:15;13.60;94.30
23329;DHT22;11836;51.050;3.716;2023-01-23T00:46:42;13.70;94.40
23329;DHT22;11836;51.050;3.716;2023-01-23T00:49:08;13.70;94.00
23329;DHT22;11836;51.050;3.716;2023-01-23T00:51:34;13.70;94.20
23329;DHT22;11836;51.050;3.716;2023-01-23T00:54:02;13.70;94.00
23329;DHT22;11836;51.050;3.716;2023-01-23T00:56:28;13.70;94.40
23329;DHT22;11836;51.050;3.716;2023-01-23T00:58:59;13.70;94.80
23329;DHT22;11836;51.050;3.716;2023-01-23T01:01:25;13.60;94.60
23329;DHT22;11836;51.050;3.716;2023-01-23T01:03:57;13.60;94.50
23329;DHT22;11836;51.050;3.716;2023-01-23T01:06:30;13.60;94.50
23329;DHT22;11836;51.050;3.716;2023-01-23T01:08:59;13.60;94.10
23329;DHT22;11836;51.050;3.716;2023-01-23T01:11:26;13.70;94.30
23329;DHT22;11836;51.050;3.716;2023-01-23T01:13:58;13.60;94.50
23329;DHT22;11836;51.050;3.716;2023-01-23T01:16:25;13.60;94.20
23329;DHT22;11836;51.050;3.716;2023-01-23T01:18:51;13.70;94.50
23329;DHT22;11836;51.050;3.716;2023-01-23T01:21:20;13.80;94.40
23329;DHT22;11836;51.050;3.716;2023-01-23T01:23:45;13.60;94.60
23329;DHT22;11836;51.050;3.716;2023-01-23T01:26:17;13.50;94.80
23329;DHT22;11836;51.050;3.716;2023-01-23T01:28:43;13.40;94.80
23329;DHT22;11836;51.050;3.716;2023-01-23T01:31:12;13.50;94.50
23329;DHT22;11836;51.050;3.716;2023-01-23T01:33:41;13.50;94.50
23329;DHT22;11836;51.050;3.716;2023-01-23T01:36:11;13.50;94.70
23329;DHT22;11836;51.050;3.716;2023-01-23T01:38:37;13.40;94.70
23329;DHT22;11836;51.050;3.716;2023-01-23T01:41:10;13.50;94.70
23329;DHT22;11836;51.050;3.716;2023-01-23T01:43:37;13.40;94.90
23329;DHT22;11836;51.050;3.716;2023-01-23T01:46:16;13.40;94.70
23329;DHT22;11836;51.050;3.716;2023-01-23T01:49:21;13.30;95.10
23329;DHT22;11836;51.050;3.716;2023-01-23T01:52:09;13.40;95.10
23329;DHT22;11836;51.050;3.716;2023-01-23T01:54:50;13.40;94.90
23329;DHT22;11836;51.050;3.716;2023-01-23T01:57:40;13.40;94.80
23329;DHT22;11836;51.050;3.716;2023-01-23T02:00:18;13.40;94.60
23329;DHT22;11836;51.050;3.716;2023-01-23T02:02:55;13.40;94.70
23329;DHT22;11836;51.050;3.716;2023-01-23T02:10:42;13.40;94.30
23329;DHT22;11836;51.050;3.716;2023-01-23T02:13:29;13.40;94.60
23329;DHT22;11836;51.050;3.716;2023-01-23T02:16:03;13.40;94.50
23329;DHT22;11836;51.050;3.716;2023-01-23T02:18:30;13.40;94.70
23329;DHT22;11836;51.050;3.716;2023-01-23T02:21:03;13.40;94.70
23329;DHT22;11836;51.050;3.716;2023-01-23T02:26:39;13.30;95.10
23329;DHT22;11836;51.050;3.716;2023-01-23T02:29:07;13.30;95.10
23329;DHT22;11836;51.050;3.716;2023-01-23T02:31:39;13.20;95.20
23329;DHT22;11836;51.050;3.716;2023-01-23T02:34:10;13.20;95.10
23329;DHT22;11836;51.050;3.716;2023-01-23T02:36:45;13.20;95.10
23329;DHT22;11836;51.050;3.716;2023-01-23T02:39:16;13.20;95.20
23329;DHT22;11836;51.050;3.716;2023-01-23T02:41:48;13.20;95.20
23329;DHT22;11836;51.050;3.716;2023-01-23T02:44:30;13.20;95.00
23329;DHT22;11836;51.050;3.716;2023-01-23T02:47:05;13.20;95.10
23329;DHT22;11836;51.050;3.716;2023-01-23T02:49:32;13.20;94.80
23329;DHT22;11836;51.050;3.716;2023-01-23T02:52:01;13.20;94.90
23329;DHT22;11836;51.050;3.716;2023-01-23T02:54:29;13.20;95.10
23329;DHT22;11836;51.050;3.716;2023-01-23T02:56:56;13.10;95.10
23329;DHT22;11836;51.050;3.716;2023-01-23T02:59:27;13.20;95.00
23329;DHT22;11836;51.050;3.716;2023-01-23T03:02:37;13.10;95.00
23329;DHT22;11836;51.050;3.716;2023-01-23T03:05:04;13.20;95.20
23329;DHT22;11836;51.050;3.716;2023-01-23T03:07:34;13.10;95.10
23329;DHT22;11836;51.050;3.716;2023-01-23T03:10:03;13.10;94.90
23329;DHT22;11836;51.050;3.716;2023-01-23T03:12:29;13.20;94.20
23329;DHT22;11836;51.050;3.716;2023-01-23T03:14:56;13.20;94.70
23329;DHT22;11836;51.050;3.716;2023-01-23T03:17:24;13.10;94.80
23329;DHT22;11836;51.050;3.716;2023-01-23T03:19:56;13.10;95.10
23329;DHT22;11836;51.050;3.716;2023-01-23T03:22:25;13.10;95.00
23329;DHT22;11836;51.050;3.716;2023-01-23T03:24:53;13.20;94.80
23329;DHT22;11836;51.050;3.716;2023-01-23T03:27:18;13.10;95.10
23329;DHT22;11836;51.050;3.716;2023-01-23T03:29:44;13.10;94.90
23329;DHT22;11836;51.050;3.716;2023-01-23T03:32:28;13.00;95.00
23329;DHT22;11836;51.050;3.716;2023-01-23T03:34:55;13.10;94.90
23329;DHT22;11836;51.050;3.716;2023-01-23T03:37:21;13.10;94.90
23329;DHT22;11836;51.050;3.716;2023-01-23T03:39:47;13.00;94.90
23329;DHT22;11836;51.050;3.716;2023-01-23T03:42:37;12.90;95.10
23329;DHT22;11836;51.050;3.716;2023-01-23T03:45:03;13.00;94.90
23329;DHT22;11836;51.050;3.716;2023-01-23T03:47:29;13.00;94.80
23329;DHT22;11836;51.050;3.716;2023-01-23T03:49:59;13.00;94.40
23329;DHT22;11836;51.050;3.716;2023-01-23T03:52:25;12.90;94.60
23329;DHT22;11836;51.050;3.716;2023-01-23T03:54:55;13.00;94.90
23329;DHT22;11836;51.050;3.716;2023-01-23T03:57:20;12.90;94.70
23329;DHT22;11836;51.050;3.716;2023-01-23T03:59:46;12.90;95.10
23329;DHT22;11836;51.050;3.716;2023-01-23T04:02:12;12.90;94.70
23329;DHT22;11836;51.050;3.716;2023-01-23T04:04:38;12.90;95.10
23329;DHT22;11836;51.050;3.716;2023-01-23T04:07:05;12.90;94.50
23329;DHT22;11836;51.050;3.716;2023-01-23T04:09:31;12.90;94.50
23329;DHT22;11836;51.050;3.716;2023-01-23T04:11:57;12.90;94.30
23329;DHT22;11836;51.050;3.716;2023-01-23T04:14:25;12.90;94.60
23329;DHT22;11836;51.050;3.716;2023-01-23T04:16:51;12.90;95.20
23329;DHT22;11836;51.050;3.716;2023-01-23T04:19:18;12.90;95.20
23329;DHT22;11836;51.050;3.716;2023-01-23T04:21:53;12.80;95.40
23329;DHT22;11836;51.050;3.716;2023-01-23T04:24:19;12.80;94.50
23329;DHT22;11836;51.050;3.716;2023-01-23T04:26:45;12.80;94.70
23329;DHT22;11836;51.050;3.716;2023-01-23T04:29:11;12.80;95.10
23329;DHT22;11836;51.050;3.716;2023-01-23T04:31:37;12.80;94.80
23329;DHT22;11836;51.050;3.716;2023-01-23T04:34:03;12.80;95.10
23329;DHT22;11836;51.050;3.716;2023-01-23T04:36:28;12.80;94.70
23329;DHT22;11836;51.050;3.716;2023-01-23T04:38:55;12.80;94.70
23329;DHT22;11836;51.050;3.716;2023-01-23T04:41:23;12.80;94.70
23329;DHT22;11836;51.050;3.716;2023-01-23T04:43:49;12.90;95.10
23329;DHT22;11836;51.050;3.716;2023-01-23T04:46:15;12.80;95.10
23329;DHT22;11836;51.050;3.716;2023-01-23T04:48:41;12.80;95.00
23329;DHT22;11836;51.050;3.716;2023-01-23T04:51:07;12.80;95.00
23329;DHT22;11836;51.050;3.716;2023-01-23T04:53:34;12.90;94.90
23329;DHT22;11836;51.050;3.716;2023-01-23T04:56:00;12.90;95.00
23329;DHT22;11836;51.050;3.716;2023-01-23T04:58:27;12.80;94.50
23329;DHT22;11836;51.050;3.716;2023-01-23T05:00:52;12.90;94.90
23329;DHT22;11836;51.050;3.716;2023-01-23T05:03:20;12.80;95.10
23329;DHT22;11836;51.050;3.716;2023-01-23T05:05:49;12.90;95.00
23329;DHT22;11836;51.050;3.716;2023-01-23T05:08:14;12.80;95.20
23329;DHT22;11836;51.050;3.716;2023-01-23T05:10:40;12.80;95.30
23329;DHT22;11836;51.050;3.716;2023-01-23T05:13:06;12.80;95.20
23329;DHT22;11836;51.050;3.716;2023-01-23T05:15:34;12.90;95.00
23329;DHT22;11836;51.050;3.716;2023-01-23T05:17:59;12.90;95.00
23329;DHT22;11836;51.050;3.716;2023-01-23T05:20:25;12.90;95.00
23329;DHT22;11836;51.050;3.716;2023-01-23T05:22:51;12.90;95.10
23329;DHT22;11836;51.050;3.716;2023-01-23T05:25:18;12.90;94.90
23329;DHT22;11836;51.050;3.716;2023-01-23T05:27:48;12.90;95.20
23329;DHT22;11836;51.050;3.716;2023-01-23T05:30:20;12.80;95.20
23329;DHT22;11836;51.050;3.716;2023-01-23T05:32:47;12.90;95.10
23329;DHT22;11836;51.050;3.716;2023-01-23T05:35:13;12.90;94.90
23329;DHT22;11836;51.050;3.716;2023-01-23T05:37:42;12.80;95.10
23329;DHT22;11836;51.050;3.716;2023-01-23T05:40:17;12.90;94.80
23329;DHT22;11836;51.050;3.716;2023-01-23T05:42:43;12.90;95.00
23329;DHT22;11836;51.050;3.716;2023-01-23T05:45:12;12.80;95.00
23329;DHT22;11836;51.050;3.716;2023-01-23T05:47:40;12.80;95.50
23329;DHT22;11836;51.050;3.716;2023-01-23T05:50:06;12.80;95.20
23329;DHT22;11836;51.050;3.716;2023-01-23T05:52:34;12.80;95.20
23329;DHT22;11836;51.050;3.716;2023-01-23T05:55:00;12.80;95.30
23329;DHT22;11836;51.050;3.716;2023-01-23T05:57:25;12.80;95.30
23329;DHT22;11836;51.050;3.716;2023-01-23T05:59:51;12.70;95.70
23329;DHT22;11836;51.050;3.716;2023-01-23T06:02:17;12.70;96.00
23329;DHT22;11836;51.050;3.716;2023-01-23T06:04:46;12.70;95.50
23329;DHT22;11836;51.050;3.716;2023-01-23T06:07:14;12.70;95.40
23329;DHT22;11836;51.050;3.716;2023-01-23T06:09:40;12.70;95.40
23329;DHT22;11836;51.050;3.716;2023-01-23T06:12:06;12.70;95.10
23329;DHT22;11836;51.050;3.716;2023-01-23T06:14:31;12.70;95.40
23329;DHT22;11836;51.050;3.716;2023-01-23T06:16:57;12.70;95.50
23329;DHT22;11836;51.050;3.716;2023-01-23T06:19:23;12.70;95.40
23329;DHT22;11836;51.050;3.716;2023-01-23T06:21:48;12.70;95.40
23329;DHT22;11836;51.050;3.716;2023-01-23T06:24:15;12.70;95.70
23329;DHT22;11836;51.050;3.716;2023-01-23T06:26:41;12.70;95.10
23329;DHT22;11836;51.050;3.716;2023-01-23T06:29:06;12.80;95.10
23329;DHT22;11836;51.050;3.716;2023-01-23T06:31:32;12.80;95.30
23329;DHT22;11836;51.050;3.716;2023-01-23T06:33:58;12.70;95.50
23329;DHT22;11836;51.050;3.716;2023-01-23T06:36:25;12.70;95.80
23329;DHT22;11836;51.050;3.716;2023-01-23T06:38:51;12.70;95.80
23329;DHT22;11836;51.050;3.716;2023-01-23T06:41:17;12.80;95.20
23329;DHT22;11836;51.050;3.716;2023-01-23T06:43:42;12.80;95.00
23329;DHT22;11836;51.050;3.716;2023-01-23T06:46:11;12.80;95.20
23329;DHT22;11836;51.050;3.716;2023-01-23T06:48:37;12.80;95.40
23329;DHT22;11836;51.050;3.716;2023-01-23T06:51:04;12.70;95.20
23329;DHT22;11836;51.050;3.716;2023-01-23T06:53:30;12.80;95.40
23329;DHT22;11836;51.050;3.716;2023-01-23T06:56:04;12.80;95.70
23329;DHT22;11836;51.050;3.716;2023-01-23T06:58:31;12.70;95.60
23329;DHT22;11836;51.050;3.716;2023-01-23T07:00:57;12.70;95.70
23329;DHT22;11836;51.050;3.716;2023-01-23T07:03:24;12.70;95.90
23329;DHT22;11836;51.050;3.716;2023-01-23T07:05:50;12.80;95.40
23329;DHT22;11836;51.050;3.716;2023-01-23T07:08:18;12.80;95.30
23329;DHT22;11836;51.050;3.716;2023-01-23T07:10:48;12.80;95.60
23329;DHT22;11836;51.050;3.716;2023-01-23T07:13:14;12.70;95.70
23329;DHT22;11836;51.050;3.716;2023-01-23T07:15:39;12.80;95.50
23329;DHT22;11836;51.050;3.716;2023-01-23T07:18:05;12.80;95.20
23329;DHT22;11836;51.050;3.716;2023-01-23T07:20:34;12.80;95.30
23329;DHT22;11836;51.050;3.716;2023-01-23T07:22:59;12.90;95.10
23329;DHT22;11836;51.050;3.716;2023-01-23T07:25:25;12.90;95.30
23329;DHT22;11836;51.050;3.716;2023-01-23T07:27:51;12.90;95.20
23329;DHT22;11836;51.050;3.716;2023-01-23T07:30:17;12.90;95.40
23329;DHT22;11836;51.050;3.716;2023-01-23T07:32:43;12.90;95.80
23329;DHT22;11836;51.050;3.716;2023-01-23T07:35:09;12.80;95.90
23329;DHT22;11836;51.050;3.716;2023-01-23T07:37:35;12.90;95.40
23329;DHT22;11836;51.050;3.716;2023-01-23T07:40:00;12.90;95.00
23329;DHT22;11836;51.050;3.716;2023-01-23T07:42:29;12.90;94.70
23329;DHT22;11836;51.050;3.716;2023-01-23T07:44:57;12.80;94.60
23329;DHT22;11836;51.050;3.716;2023-01-23T07:47:29;12.70;94.60
23329;DHT22;11836;51.050;3.716;2023-01-23T07:49:54;12.60;94.80
23329;DHT22;11836;51.050;3.716;2023-01-23T07:52:20;12.60;94.70
23329;DHT22;11836;51.050;3.716;2023-01-23T07:54:45;12.60;94.90
23329;DHT22;11836;51.050;3.716;2023-01-23T07:57:11;12.60;95.10
23329;DHT22;11836;51.050;3.716;2023-01-23T07:59:37;12.60;95.20
23329;DHT22;11836;51.050;3.716;2023-01-23T08:02:07;12.50;95.30
23329;DHT22;11836;51.050;3.716;2023-01-23T08:04:34;12.50;95.60
23329;DHT22;11836;51.050;3.716;2023-01-23T08:07:03;12.50;95.90
23329;DHT22;11836;51.050;3.716;2023-01-23T08:09:28;12.50;96.00
23329;DHT22;11836;51.050;3.716;2023-01-23T08:11:54;12.50;96.00
23329;DHT22;11836;51.050;3.716;2023-01-23T08:14:20;12.50;95.90
23329;DHT22;11836;51.050;3.716;2023-01-23T08:16:50;12.60;96.20
23329;DHT22;11836;51.050;3.716;2023-01-23T08:19:16;12.60;96.30
23329;DHT22;11836;51.050;3.716;2023-01-23T08:21:42;12.60;96.20
23329;DHT22;11836;51.050;3.716;2023-01-23T08:24:12;12.60;96.00
23329;DHT22;11836;51.050;3.716;2023-01-23T08:26:37;12.70;96.10
23329;DHT22;11836;51.050;3.716;2023-01-23T08:29:03;12.70;96.10
23329;DHT22;11836;51.050;3.716;2023-01-23T08:31:32;12.70;96.00
23329;DHT22;11836;51.050;3.716;2023-01-23T08:33:58;12.70;95.90
23329;DHT22;11836;51.050;3.716;2023-01-23T08:36:24;12.80;96.00
23329;DHT22;11836;51.050;3.716;2023-01-23T08:38:49;12.70;96.40
23329;DHT22;11836;51.050;3.716;2023-01-23T08:41:15;12.80;96.50
23329;DHT22;11836;51.050;3.716;2023-01-23T08:43:41;12.80;96.70
23329;DHT22;11836;51.050;3.716;2023-01-23T08:46:08;12.90;96.30
23329;DHT22;11836;51.050;3.716;2023-01-23T08:48:34;12.90;96.30
23329;DHT22;11836;51.050;3.716;2023-01-23T08:51:06;13.00;95.90
23329;DHT22;11836;51.050;3.716;2023-01-23T08:53:33;12.90;96.00
23329;DHT22;11836;51.050;3.716;2023-01-23T08:56:13;12.90;96.40
23329;DHT22;11836;51.050;3.716;2023-01-23T08:58:40;13.00;96.20
23329;DHT22;11836;51.050;3.716;2023-01-23T09:01:10;13.00;96.30
23329;DHT22;11836;51.050;3.716;2023-01-23T09:03:37;13.00;96.10
23329;DHT22;11836;51.050;3.716;2023-01-23T09:06:03;13.10;96.40
23329;DHT22;11836;51.050;3.716;2023-01-23T09:08:29;13.10;96.30
23329;DHT22;11836;51.050;3.716;2023-01-23T09:11:02;13.10;96.10
23329;DHT22;11836;51.050;3.716;2023-01-23T09:13:28;13.20;96.40
23329;DHT22;11836;51.050;3.716;2023-01-23T09:15:54;13.10;96.50
23329;DHT22;11836;51.050;3.716;2023-01-23T09:18:19;13.20;96.40
23329;DHT22;11836;51.050;3.716;2023-01-23T09:20:50;13.20;96.50
23329;DHT22;11836;51.050;3.716;2023-01-23T09:23:15;13.20;96.30
23329;DHT22;11836;51.050;3.716;2023-01-23T09:25:41;13.30;96.50
23329;DHT22;11836;51.050;3.716;2023-01-23T09:28:07;14.10;96.60
23329;DHT22;11836;51.050;3.716;2023-01-23T09:30:33;13.30;96.10
23329;DHT22;11836;51.050;3.716;2023-01-23T09:32:59;13.40;96.50
23329;DHT22;11836;51.050;3.716;2023-01-23T09:35:25;13.40;96.20
23329;DHT22;11836;51.050;3.716;2023-01-23T09:37:50;13.50;96.10
23329;DHT22;11836;51.050;3.716;2023-01-23T09:40:31;13.50;95.70
23329;DHT22;11836;51.050;3.716;2023-01-23T09:43:22;13.50;95.50
23329;DHT22;11836;51.050;3.716;2023-01-23T09:48:43;13.60;95.80
23329;DHT22;11836;51.050;3.716;2023-01-23T09:57:01;13.70;95.30
23329;DHT22;11836;51.050;3.716;2023-01-23T09:59:39;13.70;95.30
23329;DHT22;11836;51.050;3.716;2023-01-23T10:02:22;13.70;95.30
23329;DHT22;11836;51.050;3.716;2023-01-23T10:04:57;13.80;94.90
23329;DHT22;11836;51.050;3.716;2023-01-23T10:07:54;13.80;95.10
23329;DHT22;11836;51.050;3.716;2023-01-23T10:10:39;13.80;95.10
23329;DHT22;11836;51.050;3.716;2023-01-23T10:13:28;13.80;94.80
23329;DHT22;11836;51.050;3.716;2023-01-23T10:19:03;13.90;95.10
23329;DHT22;11836;51.050;3.716;2023-01-23T10:26:42;13.90;95.30
23329;DHT22;11836;51.050;3.716;2023-01-23T10:29:29;13.80;94.90
23329;DHT22;11836;51.050;3.716;2023-01-23T10:31:57;13.20;94.60
23329;DHT22;11836;51.050;3.716;2023-01-23T10:34:36;13.80;95.00
23329;DHT22;11836;51.050;3.716;2023-01-23T10:40:05;13.80;94.80
23329;DHT22;11836;51.050;3.716;2023-01-23T10:42:32;13.80;94.90
23329;DHT22;11836;51.050;3.716;2023-01-23T10:44:58;13.80;95.20
23329;DHT22;11836;51.050;3.716;2023-01-23T10:49:52;13.90;94.60
23329;DHT22;11836;51.050;3.716;2023-01-23T10:54:55;14.00;94.90
23329;DHT22;11836;51.050;3.716;2023-01-23T10:57:24;14.10;94.80
23329;DHT22;11836;51.050;3.716;2023-01-23T10:59:55;14.10;94.60
23329;DHT22;11836;51.050;3.716;2023-01-23T11:02:28;14.20;94.60
23329;DHT22;11836;51.050;3.716;2023-01-23T11:04:54;14.20;94.60
23329;DHT22;11836;51.050;3.716;2023-01-23T11:07:29;14.30;94.90
23329;DHT22;11836;51.050;3.716;2023-01-23T11:12:49;14.30;94.80
23329;DHT22;11836;51.050;3.716;2023-01-23T11:15:24;14.30;94.30
23329;DHT22;11836;51.050;3.716;2023-01-23T11:17:56;14.30;94.60
23329;DHT22;11836;51.050;3.716;2023-01-23T11:20:34;14.30;94.50
23329;DHT22;11836;51.050;3.716;2023-01-23T11:23:17;14.40;94.50
23329;DHT22;11836;51.050;3.716;2023-01-23T11:25:53;14.40;94.50
23329;DHT22;11836;51.050;3.716;2023-01-23T11:28:32;14.40;94.30
23329;DHT22;11836;51.050;3.716;2023-01-23T11:31:10;14.40;94.00
23329;DHT22;11836;51.050;3.716;2023-01-23T11:38:46;14.50;94.30
23329;DHT22;11836;51.050;3.716;2023-01-23T11:41:14;14.30;94.60
23329;DHT22;11836;51.050;3.716;2023-01-23T11:43:41;14.50;94.70
23329;DHT22;11836;51.050;3.716;2023-01-23T11:54:54;14.60;94.10
23329;DHT22;11836;51.050;3.716;2023-01-23T12:06:19;14.80;94.40
23329;DHT22;11836;51.050;3.716;2023-01-23T12:09:12;14.80;94.60
23329;DHT22;11836;51.050;3.716;2023-01-23T12:12:04;14.70;94.20
23329;DHT22;11836;51.050;3.716;2023-01-23T12:14:56;14.70;93.90
23329;DHT22;11836;51.050;3.716;2023-01-23T12:26:06;14.80;94.30
23329;DHT22;11836;51.050;3.716;2023-01-23T12:31:46;14.80;94.40
23329;DHT22;11836;51.050;3.716;2023-01-23T12:34:46;14.90;94.40
23329;DHT22;11836;51.050;3.716;2023-01-23T12:37:34;14.90;94.40
23329;DHT22;11836;51.050;3.716;2023-01-23T12:40:17;14.90;93.80
23329;DHT22;11836;51.050;3.716;2023-01-23T12:42:49;14.90;94.20
23329;DHT22;11836;51.050;3.716;2023-01-23T12:45:22;14.90;94.30
23329;DHT22;11836;51.050;3.716;2023-01-23T12:50:49;15.00;95.10
23329;DHT22;11836;51.050;3.716;2023-01-23T12:53:21;15.00;94.80
23329;DHT22;11836;51.050;3.716;2023-01-23T12:56:09;15.00;94.90
23329;DHT22;11836;51.050;3.716;2023-01-23T12:58:39;14.90;94.90
23329;DHT22;11836;51.050;3.716;2023-01-23T13:04:11;14.90;94.50
23329;DHT22;11836;51.050;3.716;2023-01-23T13:12:25;15.00;94.70
23329;DHT22;11836;51.050;3.716;2023-01-23T13:17:46;15.00;94.60
23329;DHT22;11836;51.050;3.716;2023-01-23T13:20:31;15.00;94.90
23329;DHT22;11836;51.050;3.716;2023-01-23T13:23:33;15.00;95.60
23329;DHT22;11836;51.050;3.716;2023-01-23T13:28:50;15.00;95.50
23329;DHT22;11836;51.050;3.716;2023-01-23T13:31:43;15.00;94.90
23329;DHT22;11836;51.050;3.716;2023-01-23T13:36:50;15.00;94.50
23329;DHT22;11836;51.050;3.716;2023-01-23T13:41:46;15.10;94.60
23329;DHT22;11836;51.050;3.716;2023-01-23T13:44:22;15.10;94.40
23329;DHT22;11836;51.050;3.716;2023-01-23T13:52:11;15.10;94.10
23329;DHT22;11836;51.050;3.716;2023-01-23T13:54:57;15.00;94.30
23329;DHT22;11836;51.050;3.716;2023-01-23T13:57:44;14.90;94.30
23329;DHT22;11836;51.050;3.716;2023-01-23T14:00:17;15.10;94.60
23329;DHT22;11836;51.050;3.716;2023-01-23T14:05:39;15.00;94.50
23329;DHT22;11836;51.050;3.716;2023-01-23T14:08:14;15.00;94.50
23329;DHT22;11836;51.050;3.716;2023-01-23T14:10:44;15.00;94.30
23329;DHT22;11836;51.050;3.716;2023-01-23T14:13:12;14.90;94.50
23329;DHT22;11836;51.050;3.716;2023-01-23T14:15:43;15.00;94.50
23329;DHT22;11836;51.050;3.716;2023-01-23T14:18:47;15.00;94.40
23329;DHT22;11836;51.050;3.716;2023-01-23T14:21:23;15.00;94.40
23329;DHT22;11836;51.050;3.716;2023-01-23T14:23:54;15.00;94.00
23329;DHT22;11836;51.050;3.716;2023-01-23T14:26:29;15.00;94.30
23329;DHT22;11836;51.050;3.716;2023-01-23T14:28:59;14.90;94.50
23329;DHT22;11836;51.050;3.716;2023-01-23T14:31:28;14.90;93.90
23329;DHT22;11836;51.050;3.716;2023-01-23T14:34:05;14.90;93.70
23329;DHT22;11836;51.050;3.716;2023-01-23T14:36:33;14.90;93.80
23329;DHT22;11836;51.050;3.716;2023-01-23T14:39:00;14.80;94.20
23329;DHT22;11836;51.050;3.716;2023-01-23T14:41:31;14.70;93.60
23329;DHT22;11836;51.050;3.716;2023-01-23T14:44:02;14.70;93.80
23329;DHT22;11836;51.050;3.716;2023-01-23T14:46:38;14.60;94.10
23329;DHT22;11836;51.050;3.716;2023-01-23T14:49:08;14.60;94.20
23329;DHT22;11836;51.050;3.716;2023-01-23T14:51:35;14.60;94.40
23329;DHT22;11836;51.050;3.716;2023-01-23T14:54:02;14.60;94.40
23329;DHT22;11836;51.050;3.716;2023-01-23T14:56:36;14.60;94.60
23329;DHT22;11836;51.050;3.716;2023-01-23T14:59:06;14.60;94.60
23329;DHT22;11836;51.050;3.716;2023-01-23T15:01:33;14.50;94.70
23329;DHT22;11836;51.050;3.716;2023-01-23T15:04:04;14.50;94.80
23329;DHT22;11836;51.050;3.716;2023-01-23T15:06:33;14.50;94.80
23329;DHT22;11836;51.050;3.716;2023-01-23T15:09:11;14.50;94.40
23329;DHT22;11836;51.050;3.716;2023-01-23T15:11:38;14.50;94.50
23329;DHT22;11836;51.050;3.716;2023-01-23T15:14:19;14.50;94.00
23329;DHT22;11836;51.050;3.716;2023-01-23T15:16:46;14.50;94.50
23329;DHT22;11836;51.050;3.716;2023-01-23T15:19:20;14.50;95.10
23329;DHT22;11836;51.050;3.716;2023-01-23T15:21:47;14.40;94.70
23329;DHT22;11836;51.050;3.716;2023-01-23T15:26:40;14.50;95.00
23329;DHT22;11836;51.050;3.716;2023-01-23T15:31:41;14.50;94.50
23329;DHT22;11836;51.050;3.716;2023-01-23T15:39:39;14.50;94.60
23329;DHT22;11836;51.050;3.716;2023-01-23T15:44:39;14.60;94.50
23329;DHT22;11836;51.050;3.716;2023-01-23T15:47:05;14.60;94.60
23329;DHT22;11836;51.050;3.716;2023-01-23T15:49:32;14.60;94.30
23329;DHT22;11836;51.050;3.716;2023-01-23T15:52:08;14.60;94.50
23329;DHT22;11836;51.050;3.716;2023-01-23T15:54:38;14.50;95.00
23329;DHT22;11836;51.050;3.716;2023-01-23T15:57:05;13.50;94.50
23329;DHT22;11836;51.050;3.716;2023-01-23T15:59:32;14.50;95.10
23329;DHT22;11836;51.050;3.716;2023-01-23T16:01:58;14.50;95.10
23329;DHT22;11836;51.050;3.716;2023-01-23T16:04:24;14.50;95.70
23329;DHT22;11836;51.050;3.716;2023-01-23T16:06:50;14.50;95.00
23329;DHT22;11836;51.050;3.716;2023-01-23T16:09:30;14.50;95.20
23329;DHT22;11836;51.050;3.716;2023-01-23T16:11:58;14.50;95.50
23329;DHT22;11836;51.050;3.716;2023-01-23T16:14:24;14.60;95.60
23329;DHT22;11836;51.050;3.716;2023-01-23T16:16:50;14.60;95.40
23329;DHT22;11836;51.050;3.716;2023-01-23T16:19:15;14.60;95.40
23329;DHT22;11836;51.050;3.716;2023-01-23T16:21:42;14.60;95.70
23329;DHT22;11836;51.050;3.716;2023-01-23T16:24:17;14.30;95.90
23329;DHT22;11836;51.050;3.716;2023-01-23T16:26:45;14.20;97.30
23329;DHT22;11836;51.050;3.716;2023-01-23T16:29:26;14.20;97.40
23329;DHT22;11836;51.050;3.716;2023-01-23T16:31:53;14.20;97.10
23329;DHT22;11836;51.050;3.716;2023-01-23T16:34:18;14.30;97.10
23329;DHT22;11836;51.050;3.716;2023-01-23T16:36:44;14.30;97.00
23329;DHT22;11836;51.050;3.716;2023-01-23T16:39:18;14.30;96.80
23329;DHT22;11836;51.050;3.716;2023-01-23T16:41:45;14.30;96.90
23329;DHT22;11836;51.050;3.716;2023-01-23T16:44:13;14.30;96.70
23329;DHT22;11836;51.050;3.716;2023-01-23T16:46:38;14.40;97.00
23329;DHT22;11836;51.050;3.716;2023-01-23T16:49:04;14.50;96.90
23329;DHT22;11836;51.050;3.716;2023-01-23T16:51:30;14.50;96.70
23329;DHT22;11836;51.050;3.716;2023-01-23T16:53:57;14.50;96.60
23329;DHT22;11836;51.050;3.716;2023-01-23T16:56:34;14.50;96.20
23329;DHT22;11836;51.050;3.716;2023-01-23T16:59:03;14.40;96.20
23329;DHT22;11836;51.050;3.716;2023-01-23T17:01:35;14.40;95.80
23329;DHT22;11836;51.050;3.716;2023-01-23T17:04:02;14.30;96.00
23329;DHT22;11836;51.050;3.716;2023-01-23T17:06:29;14.30;96.30
23329;DHT22;11836;51.050;3.716;2023-01-23T17:08:54;14.30;96.50
23329;DHT22;11836;51.050;3.716;2023-01-23T17:11:42;14.30;96.70
23329;DHT22;11836;51.050;3.716;2023-01-23T17:14:44;14.30;96.60
23329;DHT22;11836;51.050;3.716;2023-01-23T17:17:14;14.20;95.90
23329;DHT22;11836;51.050;3.716;2023-01-23T17:19:41;14.20;96.20
23329;DHT22;11836;51.050;3.716;2023-01-23T17:22:28;14.20;96.40
23329;DHT22;11836;51.050;3.716;2023-01-23T17:24:57;14.30;96.50
23329;DHT22;11836;51.050;3.716;2023-01-23T17:27:23;14.30;96.40
23329;DHT22;11836;51.050;3.716;2023-01-23T17:29:49;14.30;96.30
23329;DHT22;11836;51.050;3.716;2023-01-23T17:34:51;14.30;96.30
23329;DHT22;11836;51.050;3.716;2023-01-23T17:37:20;14.40;96.20
23329;DHT22;11836;51.050;3.716;2023-01-23T17:39:46;14.40;96.10
23329;DHT22;11836;51.050;3.716;2023-01-23T17:42:16;14.40;96.10
23329;DHT22;11836;51.050;3.716;2023-01-23T17:44:44;14.40;95.80
23329;DHT22;11836;51.050;3.716;2023-01-23T17:47:11;14.20;95.40